Time;durP1;ratioP1;P1;durP2;ratioP2;P2;SDS_P1;SDS_P2;PMS_P1;PMS_P2;Temp;Humidity;BMP_temperature;BMP_pressure;BME280_temperature;BME280_humidity;BME280_pressure;Samples;Min_cycle;Max_cycle;Signal;HPM_P1;HPM_P2
2021/11/05 00:02:21;;;;;;;16.63;8.10;;;;;;;10.41;72.42;94977.94;5087724;28;20062;-70
2021/11/05 00:04:47;;;;;;;17.00;8.23;;;;;;;10.38;72.66;94970.38;5087779;28;20032;-70
2021/11/05 00:07:12;;;;;;;21.73;9.23;;;;;;;10.32;72.62;94979.50;5078355;28;20020;-70
2021/11/05 00:09:37;;;;;;;21.25;9.25;;;;;;;10.21;72.00;94980.31;5073090;28;20040;-71
2021/11/05 00:12:03;;;;;;;15.02;8.07;;;;;;;10.16;72.32;94984.22;5077041;28;20021;-70
2021/11/05 00:14:29;;;;;;;14.77;8.57;;;;;;;10.10;72.40;94990.69;5053245;28;20044;-70
2021/11/05 00:16:54;;;;;;;14.88;7.90;;;;;;;10.03;72.58;94984.34;5069641;28;20059;-70
2021/11/05 00:19:20;;;;;;;15.00;8.07;;;;;;;10.07;72.42;94998.72;5069536;28;20553;-71
2021/11/05 00:21:45;;;;;;;17.38;8.38;;;;;;;10.02;72.81;94987.88;5069701;28;20032;-71
2021/11/05 00:24:10;;;;;;;13.98;7.85;;;;;;;10.04;72.59;94983.41;5083181;28;20044;-71
2021/11/05 00:26:36;;;;;;;15.48;7.53;;;;;;;10.03;72.76;94986.94;5072684;28;20047;-71
2021/11/05 00:29:01;;;;;;;14.13;8.02;;;;;;;10.00;72.93;94979.38;5093114;28;20413;-71
2021/11/05 00:31:27;;;;;;;14.95;7.72;;;;;;;9.98;72.89;94978.69;5068805;28;20039;-71
2021/11/05 00:33:52;;;;;;;16.88;9.52;;;;;;;9.95;73.00;94971.16;5066468;28;20036;-71
2021/11/05 00:36:18;;;;;;;18.27;9.82;;;;;;;9.81;73.23;94957.47;5085194;28;20035;-71
2021/11/05 00:38:44;;;;;;;14.82;8.18;;;;;;;9.83;73.02;94953.00;5056761;28;20029;-71
2021/11/05 00:41:09;;;;;;;17.23;9.70;;;;;;;9.83;73.07;94955.59;5056855;28;20048;-71
2021/11/05 00:43:35;;;;;;;16.23;8.68;;;;;;;9.85;73.23;94964.06;5064536;28;20028;-71
2021/11/05 00:46:00;;;;;;;19.55;9.85;;;;;;;9.80;73.51;94961.00;5075138;28;20029;-71
2021/11/05 00:48:26;;;;;;;18.80;9.45;;;;;;;9.77;73.95;94958.63;5073087;28;20025;-71
2021/11/05 00:50:51;;;;;;;15.57;9.52;;;;;;;9.78;73.84;94960.31;5081601;28;20043;-71
2021/11/05 00:53:17;;;;;;;17.90;9.55;;;;;;;9.82;73.80;94955.69;5073206;28;20032;-71
2021/11/05 00:55:42;;;;;;;22.77;10.13;;;;;;;9.84;74.69;94954.63;5089953;28;20086;-71
2021/11/05 00:58:08;;;;;;;21.23;11.45;;;;;;;9.86;74.97;94951.91;5051163;28;20098;-71
2021/11/05 01:00:34;;;;;;;21.92;10.43;;;;;;;9.92;74.78;94950.59;5072569;28;20056;-71
2021/11/05 01:02:59;;;;;;;17.77;11.13;;;;;;;9.98;75.12;94947.56;5076181;28;20033;-71
2021/11/05 01:05:25;;;;;;;23.42;12.68;;;;;;;10.09;74.96;94952.72;5072566;28;20052;-71
2021/11/05 01:07:51;;;;;;;24.35;13.07;;;;;;;10.13;74.62;94948.94;5081625;28;20037;-71
2021/11/05 01:10:16;;;;;;;21.92;12.13;;;;;;;10.16;74.29;94943.50;5056064;28;20198;-71
2021/11/05 01:12:41;;;;;;;27.00;14.05;;;;;;;10.20;74.59;94944.91;5040230;28;20028;-71
2021/11/05 01:15:07;;;;;;;21.90;13.18;;;;;;;10.21;74.83;94928.38;5074287;28;20097;-71
2021/11/05 01:17:34;;;;;;;21.33;13.23;;;;;;;10.24;74.70;94935.91;5051202;28;20145;-71
2021/11/05 01:19:59;;;;;;;22.15;11.60;;;;;;;10.34;74.39;94930.88;5073201;28;20039;-71
2021/11/05 01:22:24;;;;;;;20.27;11.55;;;;;;;10.39;73.93;94933.94;5063564;28;20032;-71
2021/11/05 01:24:50;;;;;;;41.35;19.73;;;;;;;10.21;72.84;94930.16;5055491;28;20036;-71
2021/11/05 01:27:15;;;;;;;43.05;20.88;;;;;;;10.08;73.07;94935.47;5057047;28;20464;-71
2021/11/05 01:29:41;;;;;;;35.90;18.33;;;;;;;10.04;73.46;94945.28;5072074;28;20498;-71
2021/11/05 01:32:07;;;;;;;30.33;16.67;;;;;;;10.04;74.19;94942.69;5048637;28;20047;-71
2021/11/05 01:34:33;;;;;;;27.90;13.65;;;;;;;10.06;74.50;94947.78;5055733;28;20036;-71
2021/11/05 01:36:58;;;;;;;23.00;12.63;;;;;;;10.11;74.55;94947.41;5075419;28;20262;-71
2021/11/05 01:39:24;;;;;;;24.83;13.00;;;;;;;10.17;74.91;94939.97;5074257;28;20039;-71
2021/11/05 01:41:49;;;;;;;20.35;11.82;;;;;;;10.18;74.28;94946.78;5058323;28;20032;-71
2021/11/05 01:44:14;;;;;;;20.35;11.40;;;;;;;10.15;74.18;94947.03;5091847;28;20032;-71
2021/11/05 01:46:43;;;;;;;21.17;9.90;;;;;;;10.14;74.26;94940.22;5064846;28;20047;-71
2021/11/05 01:49:09;;;;;;;16.90;10.73;;;;;;;10.04;74.17;94918.50;5055579;28;20516;-71
2021/11/05 01:51:36;;;;;;;19.77;11.05;;;;;;;10.16;74.18;94927.09;5055022;28;20033;-72
2021/11/05 01:54:06;;;;;;;17.85;11.10;;;;;;;10.26;74.66;94947.00;5071528;28;20543;-71
2021/11/05 01:56:32;;;;;;;20.50;11.70;;;;;;;10.22;74.56;94926.59;5072781;28;20040;-71
2021/11/05 01:58:57;;;;;;;20.13;10.73;;;;;;;10.27;74.27;94922.72;5074321;28;20107;-70
2021/11/05 02:01:23;;;;;;;21.20;11.38;;;;;;;10.36;74.24;94933.31;5086746;28;20045;-71
2021/11/05 02:03:50;;;;;;;19.10;11.13;;;;;;;10.35;74.29;94936.88;5083430;28;20171;-71
2021/11/05 02:06:19;;;;;;;17.30;9.38;;;;;;;10.13;73.99;94906.56;5075012;28;20028;-70
2021/11/05 02:08:44;;;;;;;23.05;12.20;;;;;;;10.33;74.10;94938.75;5058392;28;20024;-71
2021/11/05 02:11:10;;;;;;;16.90;10.38;;;;;;;10.25;73.95;94929.81;5058071;28;20036;-71
2021/11/05 02:13:35;;;;;;;18.33;11.57;;;;;;;10.31;74.06;94943.25;5060972;28;20441;-72
2021/11/05 02:16:01;;;;;;;18.75;11.45;;;;;;;10.33;74.29;94930.97;5077463;28;20028;-71
2021/11/05 02:18:26;;;;;;;18.20;10.88;;;;;;;10.34;74.23;94927.44;5060581;28;20032;-71
2021/11/05 02:20:54;;;;;;;16.85;11.30;;;;;;;10.42;73.90;94940.63;5054957;28;20038;-71
2021/11/05 02:23:19;;;;;;;19.92;9.90;;;;;;;10.29;73.71;94918.25;5057822;28;20070;-71
2021/11/05 02:25:46;;;;;;;15.68;10.52;;;;;;;10.35;73.46;94939.47;5074407;28;20469;-71
2021/11/05 02:28:12;;;;;;;17.52;10.45;;;;;;;10.16;72.34;94924.50;5092337;28;20494;-72
2021/11/05 02:30:37;;;;;;;17.90;10.40;;;;;;;10.05;72.73;94933.13;5091135;28;20039;-71
2021/11/05 02:33:03;;;;;;;18.42;10.55;;;;;;;9.98;73.09;94927.59;5090978;28;20024;-71
2021/11/05 02:35:28;;;;;;;18.48;10.93;;;;;;;10.01;73.80;94934.34;5074120;28;20036;-71
2021/11/05 02:37:53;;;;;;;21.88;10.98;;;;;;;10.00;74.23;94917.94;5092311;28;20413;-71
2021/11/05 02:40:19;;;;;;;17.63;11.35;;;;;;;10.10;74.64;94918.03;5091062;28;20516;-71
2021/11/05 02:42:44;;;;;;;18.52;11.00;;;;;;;10.12;74.35;94916.13;5068918;28;20033;-70
2021/11/05 02:45:10;;;;;;;20.15;11.05;;;;;;;10.14;74.68;94922.03;5054963;28;20402;-70
2021/11/05 02:47:36;;;;;;;17.45;11.70;;;;;;;10.18;74.50;94913.03;5040204;28;20033;-70
2021/11/05 02:50:05;;;;;;;20.27;11.65;;;;;;;10.23;74.86;94918.72;5090452;28;20477;-70
2021/11/05 02:52:31;;;;;;;19.30;12.38;;;;;;;10.22;74.98;94908.44;5067214;28;20024;-71
2021/11/05 02:54:56;;;;;;;20.83;12.23;;;;;;;10.37;74.88;94922.81;5088221;28;20468;-71
2021/11/05 02:57:22;;;;;;;18.88;11.98;;;;;;;10.40;74.76;94913.97;5070338;28;20035;-71
2021/11/05 02:59:47;;;;;;;17.50;10.95;;;;;;;10.51;74.88;94914.75;5073558;28;20579;-71
2021/11/05 03:02:13;;;;;;;18.88;12.02;;;;;;;10.57;74.61;94926.41;5043618;28;20421;-71
2021/11/05 03:04:38;;;;;;;18.15;11.60;;;;;;;10.61;74.42;94914.00;5072004;28;20487;-71
2021/11/05 03:07:06;;;;;;;21.50;12.30;;;;;;;10.68;74.47;94907.34;5052470;28;20028;-71
2021/11/05 03:09:33;;;;;;;20.77;12.35;;;;;;;10.64;74.44;94909.38;5082584;28;20648;-71
2021/11/05 03:11:59;;;;;;;18.40;11.77;;;;;;;10.72;74.12;94925.16;5070372;28;20503;-71
2021/11/05 03:14:24;;;;;;;20.15;12.05;;;;;;;10.78;73.91;94923.00;5053564;28;20126;-71
2021/11/05 03:16:50;;;;;;;19.02;11.45;;;;;;;10.77;73.66;94916.16;5076608;28;20421;-71
2021/11/05 03:19:15;;;;;;;21.15;11.68;;;;;;;10.83;73.73;94932.06;5073457;28;20459;-71
2021/11/05 03:21:40;;;;;;;15.95;10.80;;;;;;;10.83;73.36;94918.25;5090183;28;20028;-71
2021/11/05 03:24:06;;;;;;;22.58;11.80;;;;;;;10.85;73.29;94924.97;5072487;28;20399;-71
2021/11/05 03:26:32;;;;;;;22.73;12.43;;;;;;;10.91;73.14;94934.06;5069680;28;20616;-71
2021/11/05 03:28:57;;;;;;;21.27;12.40;;;;;;;10.94;73.11;94929.41;5073180;28;20410;-70
2021/11/05 03:31:23;;;;;;;16.63;11.32;;;;;;;10.95;72.91;94918.09;5042968;28;20024;-75
2021/11/05 03:33:48;;;;;;;18.98;10.45;;;;;;;10.99;72.80;94925.63;5049947;28;20047;-70
2021/11/05 03:36:14;;;;;;;20.80;12.00;;;;;;;10.97;72.73;94904.94;5085264;28;20036;-70
2021/11/05 03:38:40;;;;;;;22.23;11.88;;;;;;;11.05;72.55;94925.94;5088695;28;20032;-71
2021/11/05 03:41:05;;;;;;;23.33;12.15;;;;;;;11.03;72.35;94917.47;5072335;28;20032;-71
2021/11/05 03:43:31;;;;;;;21.40;11.65;;;;;;;11.03;72.43;94904.47;5087307;28;20024;-70
2021/11/05 03:45:56;;;;;;;20.58;11.05;;;;;;;11.13;72.30;94913.13;5078089;28;20025;-71
2021/11/05 03:48:22;;;;;;;17.23;11.00;;;;;;;11.00;72.23;94891.69;5051871;28;20029;-70
2021/11/05 03:50:47;;;;;;;19.17;11.60;;;;;;;11.16;72.27;94896.44;5068590;28;20032;-70
2021/11/05 03:53:12;;;;;;;19.50;11.15;;;;;;;11.26;71.72;94901.72;5068349;28;20016;-70
2021/11/05 03:55:38;;;;;;;25.98;12.52;;;;;;;11.26;71.54;94904.31;5068299;28;20029;-70
2021/11/05 03:58:03;;;;;;;20.38;11.10;;;;;;;11.33;71.42;94914.03;5052376;28;20040;-70
2021/11/05 04:00:29;;;;;;;18.65;10.55;;;;;;;11.37;71.24;94920.66;5072919;28;20047;-70
2021/11/05 04:02:55;;;;;;;17.98;11.55;;;;;;;11.48;70.83;94914.56;5069678;28;20437;-70
2021/11/05 04:05:20;;;;;;;16.60;10.35;;;;;;;11.44;70.99;94915.75;5083518;28;20055;-70
2021/11/05 04:07:46;;;;;;;17.13;10.68;;;;;;;11.40;71.06;94925.59;5035057;28;20403;-69
2021/11/05 04:10:11;;;;;;;18.38;9.77;;;;;;;11.47;71.03;94940.69;5054264;28;20044;-70
2021/11/05 04:12:37;;;;;;;16.92;11.38;;;;;;;11.45;70.97;94932.19;5070784;28;20024;-71
2021/11/05 04:15:03;;;;;;;21.73;10.63;;;;;;;11.41;70.87;94932.44;5071073;28;20032;-71
2021/11/05 04:17:29;;;;;;;17.15;10.40;;;;;;;11.35;71.01;94929.53;5081902;28;20028;-71
2021/11/05 04:19:54;;;;;;;19.80;9.90;;;;;;;11.25;71.07;94910.44;5049303;28;20399;-71
2021/11/05 04:22:20;;;;;;;23.15;13.95;;;;;;;11.32;70.75;94911.59;5036687;28;20101;-71
2021/11/05 04:24:45;;;;;;;23.45;13.52;;;;;;;11.25;71.18;94920.84;5068729;28;20033;-71
2021/11/05 04:27:10;;;;;;;21.50;12.73;;;;;;;11.18;71.08;94917.94;5074963;28;20097;-71
2021/11/05 04:29:36;;;;;;;20.95;12.02;;;;;;;11.11;70.88;94916.81;5070570;28;20493;-70
2021/11/05 04:32:05;;;;;;;40.78;24.05;;;;;;;10.82;70.45;94920.03;5087056;28;20028;-70
2021/11/05 04:34:30;;;;;;;32.92;21.27;;;;;;;10.68;70.86;94926.38;5075381;28;20075;-71
2021/11/05 04:36:56;;;;;;;26.60;18.67;;;;;;;10.62;70.73;94937.25;5060258;28;20094;-69
2021/11/05 04:39:24;;;;;;;27.13;16.42;;;;;;;10.57;72.47;94925.59;5072230;28;20031;-69
2021/11/05 04:41:49;;;;;;;18.30;11.45;;;;;;;10.59;72.34;94929.72;5069813;28;20040;-71
2021/11/05 04:44:15;;;;;;;17.95;9.68;;;;;;;10.57;72.97;94923.81;5071801;28;20039;-71
2021/11/05 04:46:40;;;;;;;19.85;10.32;;;;;;;10.68;72.96;94923.75;5069520;28;20035;-69
2021/11/05 04:49:06;;;;;;;18.00;10.77;;;;;;;10.71;72.48;94918.31;5079060;28;20050;-69
2021/11/05 04:51:31;;;;;;;15.45;9.48;;;;;;;10.81;72.75;94926.19;5087759;28;20035;-69
2021/11/05 04:53:57;;;;;;;16.90;9.45;;;;;;;10.94;72.47;94932.00;5085666;28;20560;-69
2021/11/05 04:56:22;;;;;;;13.75;9.25;;;;;;;10.97;72.40;94912.75;5058124;28;20024;-71
2021/11/05 04:58:47;;;;;;;15.70;9.27;;;;;;;11.13;71.84;94933.94;5056983;28;20439;-70
2021/11/05 05:01:13;;;;;;;15.57;9.30;;;;;;;11.23;71.64;94938.34;5051708;28;20102;-71
2021/11/05 05:03:42;;;;;;;17.73;9.60;;;;;;;11.36;70.92;94945.00;5081420;28;20036;-70
2021/11/05 05:06:07;;;;;;;16.17;8.52;;;;;;;11.43;70.96;94950.53;5098512;28;20066;-70
2021/11/05 05:08:33;;;;;;;19.83;9.77;;;;;;;11.39;70.87;94936.13;5081739;28;20431;-70
2021/11/05 05:10:58;;;;;;;14.38;8.85;;;;;;;11.50;70.62;94950.81;5082177;28;20032;-71
2021/11/05 05:13:23;;;;;;;17.45;9.63;;;;;;;11.50;70.40;94951.66;5091384;28;20035;-70
2021/11/05 05:15:49;;;;;;;14.73;8.38;;;;;;;11.54;70.36;94947.84;5092080;28;20101;-71
2021/11/05 05:18:15;;;;;;;16.67;8.95;;;;;;;11.55;70.38;94954.69;5080855;28;20036;-71
2021/11/05 05:20:42;;;;;;;17.85;9.50;;;;;;;11.54;70.36;94954.84;5073902;28;20060;-71
2021/11/05 05:23:08;;;;;;;13.77;8.57;;;;;;;11.51;70.21;94963.72;5050237;28;20025;-72
2021/11/05 05:25:33;;;;;;;14.70;9.77;;;;;;;11.46;70.25;94960.69;5087637;28;20568;-72
2021/11/05 05:27:59;;;;;;;35.95;20.70;;;;;;;11.30;70.08;94973.31;5089655;28;21470;-71
2021/11/05 05:30:24;;;;;;;46.58;26.45;;;;;;;11.06;69.49;94982.19;5054968;28;20036;-71
2021/11/05 05:32:50;;;;;;;32.58;20.30;;;;;;;10.93;69.47;95010.13;5072553;28;20036;-71
2021/11/05 05:35:15;;;;;;;44.60;23.90;;;;;;;10.81;69.78;95011.09;5072984;28;20036;-71
2021/11/05 05:37:41;;;;;;;32.85;17.98;;;;;;;10.68;70.50;95014.69;5079564;28;20055;-71
2021/11/05 05:40:07;;;;;;;30.70;16.65;;;;;;;10.65;70.89;95025.34;5086424;28;20036;-71
2021/11/05 05:42:32;;;;;;;23.42;14.32;;;;;;;10.56;71.79;95043.41;5055700;28;20032;-71
2021/11/05 05:44:58;;;;;;;20.40;13.20;;;;;;;10.45;71.93;95020.91;5071290;28;20413;-71
2021/11/05 05:47:23;;;;;;;24.55;14.63;;;;;;;10.52;71.96;95032.44;5092498;28;20493;-71
2021/11/05 05:49:50;;;;;;;26.83;14.98;;;;;;;10.51;72.05;95036.81;5075036;28;20223;-71
2021/11/05 05:52:16;;;;;;;22.52;12.18;;;;;;;10.45;72.06;95026.09;5074211;28;20155;-71
2021/11/05 05:54:41;;;;;;;18.70;11.80;;;;;;;10.43;72.26;95012.41;5075073;28;20413;-70
2021/11/05 05:57:07;;;;;;;20.50;12.48;;;;;;;10.39;72.52;95010.97;5075575;28;20027;-71
2021/11/05 05:59:32;;;;;;;22.73;12.27;;;;;;;10.36;72.54;95006.03;5075244;28;20044;-72
2021/11/05 06:01:58;;;;;;;16.10;10.43;;;;;;;10.34;72.41;95006.16;5092059;28;20028;-71
2021/11/05 06:04:26;;;;;;;19.08;9.30;;;;;;;10.24;72.74;94987.03;5058594;28;20039;-71
2021/11/05 06:06:51;;;;;;;14.93;9.25;;;;;;;10.24;73.03;94992.22;5092287;28;20493;-71
2021/11/05 06:09:17;;;;;;;16.00;8.70;;;;;;;10.33;73.12;94991.53;5092043;28;20064;-72
2021/11/05 06:11:42;;;;;;;16.70;9.18;;;;;;;10.39;73.66;94998.00;5075012;28;20103;-72
2021/11/05 06:14:08;;;;;;;16.50;9.15;;;;;;;10.54;74.14;95004.59;5091842;28;20028;-71
2021/11/05 06:16:33;;;;;;;15.10;9.40;;;;;;;10.67;73.83;95002.66;5058139;28;20039;-72
2021/11/05 06:19:00;;;;;;;16.02;8.63;;;;;;;10.77;73.45;95000.13;5091419;28;20039;-72
2021/11/05 06:21:26;;;;;;;15.60;8.98;;;;;;;10.97;73.38;95006.31;5091562;28;20492;-71
2021/11/05 06:23:52;;;;;;;14.98;9.25;;;;;;;11.12;72.79;95012.88;5092522;28;20046;-71
2021/11/05 06:26:17;;;;;;;14.77;8.75;;;;;;;11.23;72.31;95009.41;5091234;28;20493;-70
2021/11/05 06:28:42;;;;;;;17.75;8.90;;;;;;;11.47;71.01;95006.53;5091326;28;20477;-70
2021/11/05 06:31:08;;;;;;;16.25;8.52;;;;;;;11.67;71.16;94996.22;5090969;28;20508;-70
2021/11/05 06:33:33;;;;;;;14.35;9.20;;;;;;;11.70;71.28;94985.56;5074317;28;20350;-70
2021/11/05 06:35:59;;;;;;;17.10;9.80;;;;;;;11.79;71.57;94997.81;5074387;28;20346;-70
2021/11/05 06:38:24;;;;;;;12.65;8.90;;;;;;;11.83;71.34;95004.41;5092353;28;20459;-70
2021/11/05 06:40:50;;;;;;;16.08;8.82;;;;;;;11.94;71.41;95016.53;5090997;28;20032;-70
2021/11/05 06:43:15;;;;;;;137.55;62.72;;;;;;;11.98;71.44;95018.75;5091147;28;20030;-70
2021/11/05 06:45:41;;;;;;;50.88;30.98;;;;;;;12.03;71.46;95016.56;5091053;28;20036;-70
2021/11/05 06:48:06;;;;;;;37.10;22.85;;;;;;;12.10;71.27;95026.47;5092108;28;20020;-70
2021/11/05 06:50:32;;;;;;;31.25;18.83;;;;;;;12.17;71.53;95022.38;5085465;28;20024;-72
2021/11/05 06:52:57;;;;;;;23.40;16.70;;;;;;;12.27;72.34;95018.03;5053881;28;20052;-69
2021/11/05 06:55:23;;;;;;;23.75;15.10;;;;;;;12.40;72.70;95013.44;5084101;28;20401;-70
2021/11/05 06:57:48;;;;;;;27.63;15.57;;;;;;;12.56;72.89;95010.28;5037248;28;20486;-69
2021/11/05 07:00:14;;;;;;;27.95;19.42;;;;;;;12.65;72.15;95006.06;5074822;28;20057;-70
2021/11/05 07:02:42;;;;;;;33.90;21.10;;;;;;;12.96;74.31;95025.84;5073725;28;20036;-70
2021/11/05 07:05:12;;;;;;;35.17;19.95;;;;;;;13.10;72.28;95026.41;5070535;28;20025;-70
2021/11/05 07:07:38;;;;;;;24.92;17.73;;;;;;;13.18;72.05;95013.50;5054024;28;20028;-72
2021/11/05 07:10:04;;;;;;;29.75;20.73;;;;;;;13.64;75.06;95020.59;5080844;28;20051;-72
2021/11/05 07:12:30;;;;;;;42.95;27.80;;;;;;;14.15;77.38;95022.94;5090877;28;20490;-72
2021/11/05 07:14:55;;;;;;;35.85;23.05;;;;;;;14.58;78.47;95034.59;5090787;28;20043;-73
2021/11/05 07:17:21;;;;;;;37.35;21.95;;;;;;;14.85;78.37;95015.44;5090643;28;20028;-72
2021/11/05 07:19:46;;;;;;;39.63;24.98;;;;;;;15.17;73.70;95035.84;5055059;28;20504;-73
2021/11/05 07:22:12;;;;;;;40.10;20.38;;;;;;;15.19;68.10;95026.88;5085372;28;20037;-70
2021/11/05 07:24:38;;;;;;;35.45;20.85;;;;;;;15.43;72.80;95025.44;5090176;28;20109;-70
2021/11/05 07:27:03;;;;;;;36.15;19.88;;;;;;;15.49;65.79;95014.38;5081679;28;20103;-72
2021/11/05 07:29:31;;;;;;;34.97;21.77;;;;;;;15.78;67.45;95023.78;5069981;28;20036;-73
2021/11/05 07:31:58;;;;;;;29.35;17.25;;;;;;;15.99;66.25;95016.38;5070208;28;20024;-72
2021/11/05 07:34:24;;;;;;;22.20;14.55;;;;;;;16.21;64.12;95009.75;5084579;28;20032;-73
2021/11/05 07:36:50;;;;;;;28.80;16.42;;;;;;;16.41;62.29;95006.88;5057120;28;20421;-73
2021/11/05 07:39:15;;;;;;;23.13;15.15;;;;;;;16.44;61.51;94999.56;5082859;28;20028;-73
2021/11/05 07:41:40;;;;;;;22.65;14.15;;;;;;;16.62;59.43;95016.97;5078232;28;20509;-74
2021/11/05 07:44:06;;;;;;;22.65;15.10;;;;;;;16.64;59.79;95017.66;5060479;28;20037;-74
2021/11/05 07:46:31;;;;;;;19.10;13.35;;;;;;;16.68;59.75;95016.31;5089754;28;20028;-74
2021/11/05 07:48:57;;;;;;;21.90;13.85;;;;;;;16.73;58.98;95006.19;5082993;28;20024;-74
2021/11/05 07:51:23;;;;;;;18.52;13.35;;;;;;;16.75;58.98;95001.59;5078281;28;20028;-74
2021/11/05 07:53:48;;;;;;;17.83;12.90;;;;;;;16.83;58.49;95003.47;5089686;28;20047;-71
2021/11/05 07:56:14;;;;;;;20.92;12.35;;;;;;;16.88;58.33;95011.66;5072448;28;20028;-70
2021/11/05 07:58:40;;;;;;;17.90;12.48;;;;;;;16.86;57.90;95014.44;5070267;28;20024;-71
2021/11/05 08:01:05;;;;;;;20.95;13.35;;;;;;;16.86;57.38;95009.22;5066731;28;20135;-70
2021/11/05 08:03:31;;;;;;;18.42;12.05;;;;;;;16.88;57.06;95001.16;5063658;28;20016;-72
2021/11/05 08:05:56;;;;;;;20.42;11.05;;;;;;;16.81;57.18;94998.38;5088480;28;20024;-70
2021/11/05 08:08:22;;;;;;;19.38;11.10;;;;;;;16.87;57.19;95000.34;5090569;28;20020;-70
2021/11/05 08:10:47;;;;;;;18.08;10.52;;;;;;;16.83;57.11;94993.78;5072935;28;20478;-70
2021/11/05 08:13:14;;;;;;;15.52;9.63;;;;;;;16.93;56.64;94999.69;5090868;28;20035;-71
2021/11/05 08:15:39;;;;;;;21.25;12.75;;;;;;;17.03;55.75;95004.00;5089657;28;20445;-70
2021/11/05 08:18:05;;;;;;;18.38;10.63;;;;;;;17.06;55.88;94995.78;5072823;28;20024;-70
2021/11/05 08:20:30;;;;;;;21.38;10.82;;;;;;;17.14;55.70;95001.06;5089799;28;20036;-71
2021/11/05 08:22:55;;;;;;;22.10;13.48;;;;;;;17.17;55.67;94992.84;5072411;28;20482;-71
2021/11/05 08:25:21;;;;;;;16.48;11.10;;;;;;;17.29;55.85;95009.91;5089434;28;20039;-71
2021/11/05 08:27:46;;;;;;;19.90;13.02;;;;;;;17.25;54.19;94987.59;5090713;28;20066;-68
2021/11/05 08:30:16;;;;;;;19.48;12.43;;;;;;;17.31;54.61;95007.13;5089657;28;20032;-68
2021/11/05 08:32:42;;;;;;;19.95;12.45;;;;;;;17.31;54.27;94989.56;5072961;28;20028;-68
2021/11/05 08:35:07;;;;;;;17.23;11.55;;;;;;;17.37;54.44;94986.28;5072874;28;20107;-70
2021/11/05 08:37:33;;;;;;;14.52;10.88;;;;;;;17.50;54.88;94998.94;5089479;28;20543;-71
2021/11/05 08:39:59;;;;;;;19.13;13.00;;;;;;;17.66;54.54;95000.69;5089308;28;20043;-72
2021/11/05 08:42:25;;;;;;;15.20;10.77;;;;;;;17.71;54.48;94987.06;5087058;28;20032;-75
2021/11/05 08:44:50;;;;;;;19.55;11.65;;;;;;;17.81;54.81;94991.19;5089288;28;20035;-74
2021/11/05 08:47:15;;;;;;;16.65;10.70;;;;;;;18.00;54.63;94981.31;5072962;28;20017;-74
2021/11/05 08:49:41;;;;;;;18.80;11.85;;;;;;;18.12;53.01;94985.22;5065509;28;20040;-73
2021/11/05 08:52:06;;;;;;;13.27;9.38;;;;;;;18.25;52.29;94980.25;5081823;28;20025;-72
2021/11/05 08:54:32;;;;;;;17.83;9.30;;;;;;;18.45;53.15;94995.63;5084560;28;20519;-75
2021/11/05 08:56:57;;;;;;;14.50;9.75;;;;;;;18.62;53.03;94993.72;5089031;28;20543;-74
2021/11/05 08:59:23;;;;;;;14.85;9.43;;;;;;;18.73;51.92;94985.44;5093205;28;20401;-73
2021/11/05 09:01:49;;;;;;;16.65;9.40;;;;;;;18.91;52.69;94990.47;5072373;28;20110;-72
2021/11/05 09:04:16;;;;;;;13.52;8.85;;;;;;;19.10;52.07;94987.38;5055984;28;20052;-74
2021/11/05 09:06:42;;;;;;;16.55;8.90;;;;;;;19.29;52.29;94991.34;5085904;28;20103;-76
2021/11/05 09:09:07;;;;;;;15.90;9.38;;;;;;;19.40;51.25;94980.41;5079427;28;20522;-74
2021/11/05 09:11:34;;;;;;;18.60;9.65;;;;;;;19.54;50.86;94985.91;5086556;28;20024;-77
2021/11/05 09:13:59;;;;;;;18.00;10.23;;;;;;;19.64;49.66;94987.28;5059770;28;20145;-74
2021/11/05 09:16:27;;;;;;;17.58;8.55;;;;;;;19.74;49.68;94991.50;5083336;28;20057;-73
2021/11/05 09:18:53;;;;;;;13.00;8.15;;;;;;;19.74;49.71;94994.16;5072290;28;20059;-75
2021/11/05 09:21:19;;;;;;;17.48;8.63;;;;;;;19.84;48.58;94992.09;5077117;28;20064;-73
2021/11/05 09:23:44;;;;;;;16.20;8.77;;;;;;;19.82;49.22;94983.53;5089105;28;20035;-73
2021/11/05 09:26:09;;;;;;;15.50;9.48;;;;;;;19.89;48.93;94979.16;5082192;28;20037;-74
2021/11/05 09:28:35;;;;;;;17.88;9.02;;;;;;;20.01;49.26;94995.38;5086026;28;20490;-73
2021/11/05 09:31:02;;;;;;;17.85;9.50;;;;;;;20.09;48.97;94987.38;5072322;28;20032;-73
2021/11/05 09:33:28;;;;;;;16.95;9.32;;;;;;;20.10;49.24;94991.66;5090308;28;20017;-72
2021/11/05 09:35:53;;;;;;;20.60;9.40;;;;;;;20.19;48.32;94987.09;5072714;28;20051;-71
2021/11/05 09:38:19;;;;;;;19.85;8.52;;;;;;;20.20;48.08;94978.19;5055962;28;20410;-73
2021/11/05 09:40:45;;;;;;;17.83;8.68;;;;;;;20.23;48.20;94977.84;5072551;28;20481;-74
2021/11/05 09:43:11;;;;;;;18.80;9.43;;;;;;;20.27;47.90;94971.19;5055708;28;20039;-74
2021/11/05 09:45:36;;;;;;;13.63;7.50;;;;;;;20.33;48.49;94970.44;5072568;28;20025;-72
2021/11/05 09:48:03;;;;;;;13.65;8.05;;;;;;;20.42;48.52;94974.63;5073643;28;20058;-71
2021/11/05 09:50:29;;;;;;;16.67;7.70;;;;;;;20.44;48.56;94962.06;5072360;28;20029;-71
2021/11/05 09:52:55;;;;;;;13.30;7.63;;;;;;;20.55;48.45;94967.91;5038986;28;20020;-71
2021/11/05 09:55:20;;;;;;;10.57;7.38;;;;;;;20.63;48.59;94973.09;5039182;28;20043;-71
2021/11/05 09:57:46;;;;;;;13.70;8.20;;;;;;;20.69;47.99;94964.41;5072289;28;20025;-71
2021/11/05 10:00:14;;;;;;;14.38;7.47;;;;;;;20.72;47.96;94959.56;5071637;28;20510;-72
2021/11/05 10:02:41;;;;;;;13.23;7.22;;;;;;;20.77;48.06;94956.38;5055245;28;20039;-73
2021/11/05 10:05:06;;;;;;;17.83;8.07;;;;;;;20.79;47.97;94953.56;5055623;28;20483;-73
2021/11/05 10:07:43;;;;;;;15.85;8.48;;;;;;;20.86;47.61;94968.47;5055537;28;20062;-74
2021/11/05 10:10:09;;;;;;;16.45;8.07;;;;;;;20.87;47.84;94969.31;5072125;28;20093;-73
2021/11/05 10:12:34;;;;;;;16.52;10.05;;;;;;;20.81;46.89;94952.38;5071614;28;20017;-74
2021/11/05 10:15:02;;;;;;;14.93;8.70;;;;;;;20.85;47.08;94952.81;5071967;28;20040;-74
2021/11/05 10:17:28;;;;;;;17.02;8.80;;;;;;;20.84;47.24;94954.66;5055531;28;20418;-71
2021/11/05 10:19:56;;;;;;;15.63;8.55;;;;;;;20.94;46.82;94957.78;5038437;28;20028;-71
2021/11/05 10:22:46;;;;;;;16.48;9.13;;;;;;;20.97;46.29;94952.13;5072935;28;20092;-73
2021/11/05 10:25:40;;;;;;;20.75;10.43;;;;;;;20.97;46.41;94944.19;5073243;28;20036;-71
2021/11/05 10:28:13;;;;;;;14.95;7.70;;;;;;;21.03;46.94;94944.47;5071612;28;20028;-72
2021/11/05 10:30:45;;;;;;;15.55;7.97;;;;;;;21.13;47.46;94950.25;5071364;28;20036;-71
2021/11/05 10:33:12;;;;;;;14.93;7.78;;;;;;;21.22;47.78;94943.84;5071223;28;20028;-71
2021/11/05 10:35:41;;;;;;;17.27;7.68;;;;;;;21.34;45.80;94936.22;5071615;28;20033;-71
2021/11/05 10:38:08;;;;;;;13.40;6.90;;;;;;;21.43;45.67;94940.41;5071506;28;20391;-71
2021/11/05 10:40:37;;;;;;;15.82;7.18;;;;;;;21.49;45.85;94930.91;5071505;28;20028;-72
2021/11/05 10:43:04;;;;;;;15.55;7.57;;;;;;;21.59;45.77;94929.56;5072190;28;20032;-71
2021/11/05 10:45:30;;;;;;;14.50;7.38;;;;;;;21.68;46.34;94943.44;5054743;28;20037;-71
2021/11/05 10:47:57;;;;;;;19.30;8.25;;;;;;;21.77;46.50;94926.41;5038038;28;20036;-72
2021/11/05 10:50:25;;;;;;;13.75;7.40;;;;;;;21.77;46.30;94918.47;5071093;28;20125;-72
2021/11/05 10:53:10;;;;;;;12.77;6.53;;;;;;;22.00;45.49;94920.03;5054625;28;20041;-72
2021/11/05 10:55:43;;;;;;;13.65;7.53;;;;;;;22.04;45.40;94905.44;5070915;28;20041;-71
2021/11/05 10:58:28;;;;;;;14.75;7.40;;;;;;;22.08;45.49;94904.00;5071077;28;20488;-72
2021/11/05 11:01:08;;;;;;;10.00;6.75;;;;;;;22.13;45.14;94898.94;5071080;28;20048;-71
2021/11/05 11:03:38;;;;;;;14.82;7.45;;;;;;;22.27;44.56;94894.56;5055764;28;20033;-74
2021/11/05 11:06:08;;;;;;;16.50;6.50;;;;;;;22.34;42.51;94887.47;5070989;28;20033;-71
2021/11/05 11:08:36;;;;;;;10.75;4.13;;;;;;;22.46;39.02;94890.38;5054366;28;20413;-71
2021/11/05 11:11:29;;;;;;;9.77;4.00;;;;;;;22.69;39.35;94890.03;5071556;28;20036;-72
2021/11/05 11:13:56;;;;;;;11.25;4.18;;;;;;;22.81;40.19;94884.97;5062482;28;20060;-72
2021/11/05 11:16:28;;;;;;;13.00;3.80;;;;;;;22.97;37.86;94881.97;5070282;28;20033;-72
2021/11/05 11:19:01;;;;;;;11.02;3.85;;;;;;;23.08;35.93;94886.66;5054546;28;20082;-72